Time;durP1;ratioP1;P1;durP2;ratioP2;P2;SDS_P1;SDS_P2;PMS_P1;PMS_P2;Temp;Humidity;BMP_temperature;BMP_pressure;BME280_temperature;BME280_humidity;BME280_pressure;Samples;Min_cycle;Max_cycle;Signal;HPM_P1;HPM_P2
2022/05/10 00:02:21;;;;;;;3.38;1.40;;;;;;;;;;6150229;23;20510;-56
2022/05/10 00:05:01;;;;;;;4.22;1.60;;;;;;;;;;6149538;23;20108;-54
2022/05/10 00:07:30;;;;;;;4.43;1.90;;;;;;;;;;6150721;23;20416;-52
2022/05/10 00:10:07;;;;;;;4.60;1.85;;;;;;;;;;6151110;23;20105;-54
2022/05/10 00:12:34;;;;;;;5.60;1.60;;;;;;;;;;6150426;23;20101;-53
2022/05/10 00:15:01;;;;;;;3.20;1.70;;;;;;;;;;6149587;23;20128;-67
2022/05/10 00:17:38;;;;;;;6.40;2.22;;;;;;;;;;6149125;23;20530;-52
2022/05/10 00:20:06;;;;;;;2.80;1.67;;;;;;;;;;6151375;23;20045;-52
2022/05/10 00:22:34;;;;;;;3.40;1.85;;;;;;;;;;6151481;23;20478;-50
2022/05/10 00:25:09;;;;;;;3.55;1.77;;;;;;;;;;6152220;23;20049;-56
2022/05/10 00:27:35;;;;;;;4.88;2.05;;;;;;;;;;6152680;23;20049;-54
2022/05/10 00:30:04;;;;;;;4.07;1.90;;;;;;;;;;6153021;23;20056;-54
2022/05/10 00:32:38;;;;;;;4.68;2.08;;;;;;;;;;6151509;23;20053;-55
2022/05/10 00:35:04;;;;;;;;;;;;;;;;;;6153166;23;20380;-60
2022/05/10 00:37:31;;;;;;;4.28;1.98;;;;;;;;;;6152842;23;19917;-68
2022/05/10 00:40:04;;;;;;;6.93;1.92;;;;;;;;;;6152050;23;20022;-68
2022/05/10 00:42:34;;;;;;;5.80;2.03;;;;;;;;;;6152436;23;20018;-67
2022/05/10 00:45:02;;;;;;;5.68;1.90;;;;;;;;;;6152547;23;20487;-65
2022/05/10 00:47:38;;;;;;;6.78;1.95;;;;;;;;;;6151853;23;20026;-65
2022/05/10 00:50:17;;;;;;;8.05;1.88;;;;;;;;;;6152651;23;20025;-66
2022/05/10 00:52:49;;;;;;;9.52;2.15;;;;;;;;;;6152113;23;20026;-52
2022/05/10 00:55:19;;;;;;;6.80;1.88;;;;;;;;;;6151656;23;20060;-65
2022/05/10 00:57:54;;;;;;;9.35;2.00;;;;;;;;;;6150072;23;20053;-65
2022/05/10 01:00:28;;;;;;;3.47;1.70;;;;;;;;;;6149390;23;20479;-64
2022/05/10 01:03:14;;;;;;;7.53;2.20;;;;;;;;;;6150814;23;20028;-65
2022/05/10 01:05:54;;;;;;;6.18;1.85;;;;;;;;;;6152292;23;20067;-67
2022/05/10 01:08:24;;;;;;;6.60;1.50;;;;;;;;;;6152747;23;20068;-66
2022/05/10 01:10:58;;;;;;;8.85;1.88;;;;;;;;;;6150889;23;20061;-68
2022/05/10 01:13:33;;;;;;;3.85;1.60;;;;;;;;;;6151537;23;20069;-50
2022/05/10 01:16:14;;;;;;;2.92;1.58;;;;;;;;;;6152856;23;20097;-69
2022/05/10 01:18:41;;;;;;;7.43;1.83;;;;;;;;;;6152556;23;20032;-69
2022/05/10 01:21:32;;;;;;;4.93;2.00;;;;;;;;;;6152198;23;20412;-70
2022/05/10 01:24:16;;;;;;;3.35;1.70;;;;;;;;;;6151850;23;20033;-70
2022/05/10 01:26:55;;;;;;;4.60;1.80;;;;;;;;;;6151225;23;20048;-70
2022/05/10 01:29:26;;;;;;;4.15;1.60;;;;;;;;;;6151325;23;20029;-69
2022/05/10 01:34:49;;;;;;;2.60;1.58;;;;;;;;;;6152233;23;20025;-64
2022/05/10 01:37:24;;;;;;;7.95;1.40;;;;;;;;;;6151232;23;20088;-63
2022/05/10 01:39:51;;;;;;;8.23;1.52;;;;;;;;;;6151984;23;20395;-64
2022/05/10 01:42:20;;;;;;;5.13;1.90;;;;;;;;;;6151003;23;20092;-63
2022/05/10 01:45:01;;;;;;;2.55;1.45;;;;;;;;;;6150994;23;20022;-65
2022/05/10 01:47:39;;;;;;;3.20;1.55;;;;;;;;;;6150266;23;20084;-63
2022/05/10 01:50:17;;;;;;;2.78;1.50;;;;;;;;;;6152702;23;20100;-54
2022/05/10 01:52:55;;;;;;;2.30;1.58;;;;;;;;;;6151233;23;20359;-51
2022/05/10 01:55:31;;;;;;;4.03;1.63;;;;;;;;;;6152109;23;20068;-55
2022/05/10 01:58:24;;;;;;;4.65;1.90;;;;;;;;;;6151615;23;20022;-55
2022/05/10 02:01:20;;;;;;;5.40;1.67;;;;;;;;;;6151426;23;20400;-55
2022/05/10 02:03:59;;;;;;;5.97;2.20;;;;;;;;;;6149170;23;20025;-54
2022/05/10 02:06:39;;;;;;;5.80;2.10;;;;;;;;;;6152122;23;20049;-55
2022/05/10 02:09:08;;;;;;;5.10;1.70;;;;;;;;;;6152312;23;20056;-64
2022/05/10 02:11:48;;;;;;;7.88;2.20;;;;;;;;;;6150618;23;20668;-66
2022/05/10 02:14:21;;;;;;;3.28;1.60;;;;;;;;;;6151851;23;20076;-67
2022/05/10 02:17:00;;;;;;;9.30;1.98;;;;;;;;;;6150315;23;20494;-66
2022/05/10 02:19:49;;;;;;;4.88;2.00;;;;;;;;;;6150852;23;20363;-67
2022/05/10 02:22:30;;;;;;;4.45;1.52;;;;;;;;;;6150511;23;20061;-67
2022/05/10 02:25:02;;;;;;;6.22;2.20;;;;;;;;;;6151945;23;20022;-67
2022/05/10 02:27:37;;;;;;;5.47;2.00;;;;;;;;;;6151346;23;20021;-64
2022/05/10 02:30:06;;;;;;;2.53;1.48;;;;;;;;;;6150869;23;20506;-50
2022/05/10 02:35:28;;;;;;;6.47;2.00;;;;;;;;;;6150995;23;20063;-67
2022/05/10 02:37:54;;;;;;;6.03;2.00;;;;;;;;;;6150176;23;20056;-67
2022/05/10 02:40:20;;;;;;;6.65;2.20;;;;;;;;;;6151177;23;20026;-67
2022/05/10 02:42:54;;;;;;;5.72;1.60;;;;;;;;;;6150681;23;20061;-67
2022/05/10 02:45:20;;;;;;;4.22;1.80;;;;;;;;;;6151663;23;20064;-67
2022/05/10 02:47:47;;;;;;;3.58;1.83;;;;;;;;;;6151503;23;20064;-59
2022/05/10 02:50:21;;;;;;;4.18;1.80;;;;;;;;;;6152249;23;20057;-60
2022/05/10 02:52:47;;;;;;;6.05;1.70;;;;;;;;;;6149176;23;20109;-59
2022/05/10 02:55:34;;;;;;;6.53;1.83;;;;;;;;;;6151542;23;20483;-60
2022/05/10 02:58:33;;;;;;;2.80;1.92;;;;;;;;;;6151340;23;20534;-60
2022/05/10 03:01:05;;;;;;;5.47;1.80;;;;;;;;;;6147557;23;20056;-60
2022/05/10 03:03:52;;;;;;;4.03;1.90;;;;;;;;;;6150415;23;20028;-60
2022/05/10 03:06:27;;;;;;;9.32;2.10;;;;;;;;;;6150524;23;20029;-66
2022/05/10 03:09:01;;;;;;;1.70;1.42;;;;;;;;;;6151092;23;20029;-53
2022/05/10 03:11:27;;;;;;;3.17;1.77;;;;;;;;;;6150591;23;20049;-55
2022/05/10 03:13:54;;;;;;;4.10;1.65;;;;;;;;;;6150775;23;20025;-55
2022/05/10 03:16:27;;;;;;;4.03;1.77;;;;;;;;;;6151163;23;20472;-54
2022/05/10 03:18:54;;;;;;;6.38;2.00;;;;;;;;;;6151300;23;20104;-56
2022/05/10 03:21:20;;;;;;;5.00;2.05;;;;;;;;;;6150698;23;20057;-54
2022/05/10 03:23:54;;;;;;;6.63;1.70;;;;;;;;;;6150359;23;20022;-60
2022/05/10 03:26:25;;;;;;;4.35;1.98;;;;;;;;;;6150819;23;20056;-60
2022/05/10 03:28:52;;;;;;;8.00;1.90;;;;;;;;;;6150490;23;20021;-59
2022/05/10 03:31:26;;;;;;;3.40;1.83;;;;;;;;;;6151089;23;20029;-59
2022/05/10 03:36:45;;;;;;;9.52;2.05;;;;;;;;;;6150690;23;20049;-60
2022/05/10 03:39:11;;;;;;;7.30;1.92;;;;;;;;;;6150693;23;20097;-60
2022/05/10 03:41:37;;;;;;;5.63;1.70;;;;;;;;;;6150966;23;20064;-60
2022/05/10 03:44:11;;;;;;;5.30;1.85;;;;;;;;;;6151683;23;20084;-50
2022/05/10 03:46:37;;;;;;;5.40;2.08;;;;;;;;;;6149873;23;20041;-60
2022/05/10 03:49:04;;;;;;;6.97;1.90;;;;;;;;;;6150886;23;20136;-60
2022/05/10 03:51:37;;;;;;;3.00;1.90;;;;;;;;;;6150054;23;20049;-58
2022/05/10 03:54:03;;;;;;;5.93;1.85;;;;;;;;;;6149384;23;20036;-58
2022/05/10 03:56:30;;;;;;;8.65;1.92;;;;;;;;;;6150326;23;20483;-58
2022/05/10 03:59:04;;;;;;;6.35;2.00;;;;;;;;;;6151081;23;20022;-58
2022/05/10 04:01:30;;;;;;;5.15;2.20;;;;;;;;;;6150114;23;20108;-60
2022/05/10 04:03:57;;;;;;;5.20;1.70;;;;;;;;;;6149475;23;20354;-64
2022/05/10 04:06:30;;;;;;;6.60;1.90;;;;;;;;;;6150749;23;20048;-60
2022/05/10 04:08:57;;;;;;;4.75;1.92;;;;;;;;;;6151171;23;20051;-59
2022/05/10 04:11:23;;;;;;;3.28;1.98;;;;;;;;;;6150842;23;20064;-57
2022/05/10 04:13:56;;;;;;;3.13;1.75;;;;;;;;;;6150765;23;20056;-59
2022/05/10 04:16:22;;;;;;;5.70;1.88;;;;;;;;;;6150597;23;20517;-60
2022/05/10 04:18:49;;;;;;;8.25;2.28;;;;;;;;;;6149288;23;20022;-60
2022/05/10 04:21:22;;;;;;;5.10;1.90;;;;;;;;;;6150690;23;20518;-54
2022/05/10 04:23:48;;;;;;;3.53;1.85;;;;;;;;;;6150500;23;20467;-66
2022/05/10 04:26:15;;;;;;;5.55;2.20;;;;;;;;;;6150071;23;20396;-61
2022/05/10 04:28:49;;;;;;;7.78;2.25;;;;;;;;;;6149728;23;20509;-59
2022/05/10 04:31:15;;;;;;;5.50;2.00;;;;;;;;;;6150657;23;20100;-60
2022/05/10 04:33:42;;;;;;;5.32;2.20;;;;;;;;;;6150351;23;20028;-59
2022/05/10 04:36:15;;;;;;;4.72;2.28;;;;;;;;;;6149113;23;20471;-59
2022/05/10 04:38:44;;;;;;;4.30;2.10;;;;;;;;;;6150191;23;20025;-60
2022/05/10 04:41:27;;;;;;;4.85;1.92;;;;;;;;;;6150035;23;20021;-53
2022/05/10 04:44:01;;;;;;;6.32;2.00;;;;;;;;;;6149995;23;20079;-66
2022/05/10 04:46:27;;;;;;;;;;;;;;;;;;6151027;23;20470;-65
2022/05/10 04:48:54;;;;;;;5.82;2.15;;;;;;;;;;6150219;23;19917;-66
2022/05/10 04:51:28;;;;;;;6.65;2.03;;;;;;;;;;6150782;23;20053;-66
2022/05/10 04:53:54;;;;;;;;;;;;;;;;;;6148979;23;20053;-66
2022/05/10 04:56:21;;;;;;;4.80;1.80;;;;;;;;;;6148912;23;19920;-65
2022/05/10 04:58:57;;;;;;;8.13;2.22;;;;;;;;;;6149130;23;20478;-66
2022/05/10 05:01:28;;;;;;;4.78;2.20;;;;;;;;;;6150489;23;20029;-54
2022/05/10 05:04:08;;;;;;;;;;;;;;;;;;6148785;23;20483;-61
2022/05/10 05:06:41;;;;;;;5.28;2.00;;;;;;;;;;6151738;23;19921;-62
2022/05/10 05:09:15;;;;;;;5.07;2.00;;;;;;;;;;6151912;23;20487;-64
2022/05/10 05:11:41;;;;;;;4.07;2.00;;;;;;;;;;6151971;23;20367;-61
2022/05/10 05:14:10;;;;;;;8.52;2.50;;;;;;;;;;6150781;23;20092;-61
2022/05/10 05:16:43;;;;;;;6.80;2.13;;;;;;;;;;6152120;23;20495;-62
2022/05/10 05:19:09;;;;;;;6.15;2.70;;;;;;;;;;6152805;23;20120;-51
2022/05/10 05:21:35;;;;;;;5.50;2.13;;;;;;;;;;6151190;23;20086;-58
2022/05/10 05:24:11;;;;;;;10.00;2.30;;;;;;;;;;6152204;23;20049;-65
2022/05/10 05:26:38;;;;;;;9.60;2.47;;;;;;;;;;6151785;23;20590;-64
2022/05/10 05:29:04;;;;;;;7.20;2.20;;;;;;;;;;6151860;23;20812;-65
2022/05/10 05:31:40;;;;;;;3.78;2.45;;;;;;;;;;6151483;23;20049;-64
2022/05/10 05:34:06;;;;;;;6.80;2.40;;;;;;;;;;6152053;23;20021;-65
2022/05/10 05:36:33;;;;;;;6.00;2.70;;;;;;;;;;6151949;23;20041;-64
2022/05/10 05:39:06;;;;;;;4.38;2.30;;;;;;;;;;6151014;23;20048;-58
2022/05/10 05:41:32;;;;;;;6.72;2.30;;;;;;;;;;6149953;23;20061;-62
2022/05/10 05:43:58;;;;;;;8.13;2.50;;;;;;;;;;6151625;23;20025;-62
2022/05/10 05:46:32;;;;;;;5.25;2.13;;;;;;;;;;6152297;23;20052;-62
2022/05/10 05:49:01;;;;;;;9.23;2.15;;;;;;;;;;6152349;23;20060;-61
2022/05/10 05:51:27;;;;;;;5.55;2.22;;;;;;;;;;6152289;23;20093;-61
2022/05/10 05:54:01;;;;;;;9.02;2.72;;;;;;;;;;6150491;23;20057;-61
2022/05/10 05:56:27;;;;;;;6.30;2.53;;;;;;;;;;6152103;23;20025;-58
2022/05/10 05:58:53;;;;;;;7.85;2.58;;;;;;;;;;6151760;23;20025;-59
2022/05/10 06:01:27;;;;;;;9.98;2.83;;;;;;;;;;6152110;23;20061;-58
2022/05/10 06:04:00;;;;;;;6.70;2.40;;;;;;;;;;6149887;23;20065;-58
2022/05/10 06:06:40;;;;;;;5.93;2.50;;;;;;;;;;6151323;23;20363;-58
2022/05/10 06:09:07;;;;;;;8.27;2.75;;;;;;;;;;6151018;23;20408;-58
2022/05/10 06:11:33;;;;;;;8.18;2.40;;;;;;;;;;6151447;23;20030;-59
2022/05/10 06:14:07;;;;;;;5.18;2.15;;;;;;;;;;6152290;23;20025;-58
2022/05/10 06:16:33;;;;;;;8.15;2.63;;;;;;;;;;6150494;23;20546;-69
2022/05/10 06:19:00;;;;;;;3.50;2.00;;;;;;;;;;6151562;23;20032;-62
2022/05/10 06:21:33;;;;;;;12.57;2.90;;;;;;;;;;6151386;23;20056;-62
2022/05/10 06:23:59;;;;;;;6.00;2.63;;;;;;;;;;6151337;23;20025;-62
2022/05/10 06:26:25;;;;;;;8.45;2.53;;;;;;;;;;6151881;23;20061;-62
2022/05/10 06:28:59;;;;;;;6.22;2.88;;;;;;;;;;6151185;23;20029;-62
2022/05/10 06:31:25;;;;;;;10.30;2.72;;;;;;;;;;6150951;23;20448;-62
2022/05/10 06:33:52;;;;;;;10.38;2.83;;;;;;;;;;6151484;23;20372;-62
2022/05/10 06:36:25;;;;;;;5.10;2.50;;;;;;;;;;6151962;23;20466;-58
2022/05/10 06:38:51;;;;;;;8.25;2.60;;;;;;;;;;6151084;23;20025;-51
2022/05/10 06:41:17;;;;;;;8.90;2.75;;;;;;;;;;6150908;23;20053;-49
2022/05/10 06:43:51;;;;;;;14.38;3.20;;;;;;;;;;6150632;23;20399;-52
2022/05/10 06:46:20;;;;;;;13.85;3.15;;;;;;;;;;6151927;23;20048;-51
2022/05/10 06:48:47;;;;;;;12.38;3.17;;;;;;;;;;6151306;23;20021;-53
2022/05/10 06:51:23;;;;;;;6.90;2.65;;;;;;;;;;6152407;23;20036;-49
2022/05/10 06:53:51;;;;;;;12.88;3.35;;;;;;;;;;6151189;23;20395;-70
2022/05/10 06:56:17;;;;;;;10.55;2.80;;;;;;;;;;6151360;23;20085;-58
2022/05/10 06:58:51;;;;;;;9.27;3.35;;;;;;;;;;6150627;23;20471;-57
2022/05/10 07:01:17;;;;;;;8.63;3.08;;;;;;;;;;6150053;23;20052;-57
2022/05/10 07:03:44;;;;;;;14.20;3.40;;;;;;;;;;6149922;23;20067;-57
2022/05/10 07:06:24;;;;;;;11.23;3.30;;;;;;;;;;6151669;23;20057;-56
2022/05/10 07:08:50;;;;;;;14.90;3.58;;;;;;;;;;6151040;23;20109;-56
2022/05/10 07:11:24;;;;;;;10.20;3.38;;;;;;;;;;6151836;23;20388;-55
2022/05/10 07:13:50;;;;;;;6.22;3.00;;;;;;;;;;6150786;23;20059;-62
2022/05/10 07:16:17;;;;;;;15.32;3.83;;;;;;;;;;6150942;23;20380;-53
2022/05/10 07:18:51;;;;;;;10.05;3.40;;;;;;;;;;6151021;23;20031;-50
2022/05/10 07:21:17;;;;;;;9.27;3.38;;;;;;;;;;6151459;23;20021;-50
2022/05/10 07:23:43;;;;;;;15.82;4.32;;;;;;;;;;6151056;23;20112;-52
2022/05/10 07:26:17;;;;;;;13.00;4.10;;;;;;;;;;6151233;23;20053;-49
2022/05/10 07:28:43;;;;;;;12.20;3.75;;;;;;;;;;6150519;23;20029;-51
2022/05/10 07:31:12;;;;;;;12.85;4.00;;;;;;;;;;6150584;23;20025;-51
2022/05/10 07:33:46;;;;;;;19.23;4.75;;;;;;;;;;6150644;23;20061;-53
2022/05/10 07:36:24;;;;;;;13.52;4.35;;;;;;;;;;6151293;23;20049;-62
2022/05/10 07:38:57;;;;;;;13.57;3.83;;;;;;;;;;6150947;23;20482;-62
2022/05/10 07:41:23;;;;;;;21.92;4.80;;;;;;;;;;6151410;23;20029;-62
2022/05/10 07:43:50;;;;;;;13.48;4.75;;;;;;;;;;6150092;23;20061;-61
2022/05/10 07:46:24;;;;;;;23.45;5.13;;;;;;;;;;6150601;23;20048;-61
2022/05/10 07:48:51;;;;;;;19.90;4.53;;;;;;;;;;6151159;23;20041;-64
2022/05/10 07:51:18;;;;;;;13.20;4.93;;;;;;;;;;6151557;23;20249;-58
2022/05/10 07:53:52;;;;;;;12.57;4.22;;;;;;;;;;6149402;23;20087;-65
2022/05/10 07:56:18;;;;;;;14.40;4.38;;;;;;;;;;6150968;23;20053;-51
2022/05/10 07:58:52;;;;;;;16.13;4.40;;;;;;;;;;6150068;23;20431;-49
2022/05/10 08:01:25;;;;;;;19.02;4.85;;;;;;;;;;6150496;23;20471;-48
2022/05/10 08:03:59;;;;;;;12.90;4.32;;;;;;;;;;6148634;23;20028;-50
2022/05/10 08:06:32;;;;;;;16.70;4.65;;;;;;;;;;6150585;23;20041;-52
2022/05/10 08:08:58;;;;;;;12.25;4.63;;;;;;;;;;6150206;23;20021;-52
2022/05/10 08:11:25;;;;;;;13.38;4.82;;;;;;;;;;6150812;23;20033;-58
2022/05/10 08:14:02;;;;;;;15.75;4.82;;;;;;;;;;6150345;23;20359;-48
2022/05/10 08:16:31;;;;;;;16.00;4.40;;;;;;;;;;6151165;23;20033;-53
2022/05/10 08:18:58;;;;;;;18.10;4.53;;;;;;;;;;6150350;23;20336;-51
2022/05/10 08:21:31;;;;;;;14.82;4.45;;;;;;;;;;6149191;23;20072;-52
2022/05/10 08:23:57;;;;;;;13.82;4.03;;;;;;;;;;6150136;23;20354;-50
2022/05/10 08:26:24;;;;;;;18.15;4.43;;;;;;;;;;6149538;23;20036;-49
2022/05/10 08:28:57;;;;;;;18.02;4.68;;;;;;;;;;6151043;23;20026;-60
2022/05/10 08:31:24;;;;;;;18.13;4.88;;;;;;;;;;6151132;23;20056;-51
2022/05/10 08:34:08;;;;;;;15.38;4.43;;;;;;;;;;6149860;23;20567;-52
2022/05/10 08:36:41;;;;;;;21.67;5.00;;;;;;;;;;6150592;23;20355;-51
2022/05/10 08:39:08;;;;;;;15.18;4.20;;;;;;;;;;6151206;23;20048;-49
2022/05/10 08:41:41;;;;;;;14.57;4.43;;;;;;;;;;6152667;23;20026;-51
2022/05/10 08:44:19;;;;;;;13.38;4.18;;;;;;;;;;6152434;23;20021;-53
2022/05/10 08:46:48;;;;;;;12.38;4.00;;;;;;;;;;6152394;23;20025;-52
2022/05/10 08:49:19;;;;;;;20.20;4.32;;;;;;;;;;6152768;23;20021;-52
2022/05/10 08:51:53;;;;;;;18.20;4.78;;;;;;;;;;6151593;23;20033;-58
2022/05/10 08:54:19;;;;;;;15.13;3.90;;;;;;;;;;6152723;23;20032;-58
2022/05/10 08:56:48;;;;;;;15.35;3.85;;;;;;;;;;6152057;23;20025;-57
2022/05/10 08:59:44;;;;;;;19.45;3.95;;;;;;;;;;6152906;23;20029;-58
2022/05/10 09:02:18;;;;;;;10.32;3.90;;;;;;;;;;6152674;23;20076;-58
2022/05/10 09:05:01;;;;;;;7.72;3.10;;;;;;;;;;6150556;23;20539;-59
2022/05/10 09:07:45;;;;;;;10.82;3.28;;;;;;;;;;6151901;23;20049;-54
2022/05/10 09:10:20;;;;;;;12.70;3.30;;;;;;;;;;6152917;23;20291;-58
2022/05/10 09:13:01;;;;;;;12.85;3.40;;;;;;;;;;6152629;23;20027;-53
2022/05/10 09:15:39;;;;;;;11.70;4.03;;;;;;;;;;6151595;23;20080;-52
2022/05/10 09:18:26;;;;;;;14.35;3.20;;;;;;;;;;6150729;23;20064;-53
2022/05/10 09:21:00;;;;;;;16.00;3.70;;;;;;;;;;6152151;23;20347;-53
2022/05/10 09:23:32;;;;;;;9.52;3.10;;;;;;;;;;6152465;23;20399;-54
2022/05/10 09:25:59;;;;;;;8.77;3.22;;;;;;;;;;6152589;23;20025;-49
2022/05/10 09:28:38;;;;;;;13.13;3.90;;;;;;;;;;6151739;23;20536;-59
2022/05/10 09:34:46;;;;;;;12.52;3.67;;;;;;;;;;6152075;23;20021;-60
2022/05/10 09:37:30;;;;;;;12.23;3.65;;;;;;;;;;6152358;23;20025;-60
2022/05/10 09:40:09;;;;;;;14.05;4.50;;;;;;;;;;6152162;23;20398;-60
2022/05/10 09:42:47;;;;;;;21.33;4.50;;;;;;;;;;6151646;23;20108;-61
2022/05/10 09:45:22;;;;;;;14.75;4.28;;;;;;;;;;6152561;23;20052;-58
2022/05/10 09:48:07;;;;;;;18.10;3.90;;;;;;;;;;6151369;23;20355;-48
2022/05/10 09:50:41;;;;;;;15.00;4.72;;;;;;;;;;6151841;23;20072;-47
2022/05/10 09:53:07;;;;;;;;;;;;;;;;;;6151008;23;20026;-51
2022/05/10 09:55:34;;;;;;;19.33;5.25;;;;;;;;;;6151871;23;19920;-50
2022/05/10 09:58:17;;;;;;;16.90;6.00;;;;;;;;;;6151699;23;20474;-53
2022/05/10 10:00:45;;;;;;;18.52;6.00;;;;;;;;;;6151775;23;20080;-49
2022/05/10 10:03:32;;;;;;;16.17;6.45;;;;;;;;;;6151902;23;20025;-54
2022/05/10 10:06:13;;;;;;;10.98;6.00;;;;;;;;;;6148674;23;20388;-58
2022/05/10 10:08:54;;;;;;;25.23;6.93;;;;;;;;;;6151194;23;20463;-51
2022/05/10 10:11:26;;;;;;;16.98;6.85;;;;;;;;;;6152278;23;20025;-53
2022/05/10 10:14:04;;;;;;;21.27;7.45;;;;;;;;;;6151013;23;20025;-53
2022/05/10 10:16:33;;;;;;;29.02;8.77;;;;;;;;;;6151544;23;20025;-51
2022/05/10 10:19:11;;;;;;;21.60;7.85;;;;;;;;;;6151505;23;20017;-55
2022/05/10 10:21:38;;;;;;;25.27;8.65;;;;;;;;;;6151530;23;20032;-55
2022/05/10 10:24:04;;;;;;;18.08;8.55;;;;;;;;;;6150796;23;20025;-60
2022/05/10 10:26:51;;;;;;;17.88;8.02;;;;;;;;;;6152096;23;20068;-54
2022/05/10 10:29:32;;;;;;;17.15;8.60;;;;;;;;;;6150837;23;20029;-56
2022/05/10 10:32:10;;;;;;;21.02;9.23;;;;;;;;;;6151376;23;20347;-53
2022/05/10 10:34:45;;;;;;;16.23;7.97;;;;;;;;;;6151858;23;20052;-53
2022/05/10 10:37:18;;;;;;;21.75;8.13;;;;;;;;;;6150782;23;20396;-56
2022/05/10 10:40:11;;;;;;;16.73;7.45;;;;;;;;;;6151138;23;20479;-55
2022/05/10 10:42:48;;;;;;;;;;;;;;;;;;6140372;23;20021;-57
2022/05/10 10:45:16;;;;;;;17.90;7.85;;;;;;;;;;6151463;23;19916;-50
2022/05/10 10:47:48;;;;;;;16.40;7.20;;;;;;;;;;6151147;23;20490;-59
2022/05/10 10:50:24;;;;;;;19.13;7.70;;;;;;;;;;6151859;23;20053;-59
2022/05/10 10:52:51;;;;;;;18.00;7.32;;;;;;;;;;6151703;23;20026;-59
2022/05/10 10:55:19;;;;;;;15.63;6.68;;;;;;;;;;6151323;23;20022;-59
2022/05/10 10:58:00;;;;;;;11.02;6.88;;;;;;;;;;6150788;23;20033;-58
2022/05/10 11:00:40;;;;;;;15.13;6.85;;;;;;;;;;6150869;23;20048;-59
2022/05/10 11:03:16;;;;;;;18.02;7.35;;;;;;;;;;6151062;23;20021;-68
2022/05/10 11:06:07;;;;;;;16.75;7.05;;;;;;;;;;6149182;23;20025;-55
2022/05/10 11:08:59;;;;;;;15.88;7.20;;;;;;;;;;6151041;23;20060;-56
2022/05/10 11:11:36;;;;;;;19.00;7.63;;;;;;;;;;6150443;23;20052;-57
2022/05/10 11:14:11;;;;;;;15.98;6.63;;;;;;;;;;6150644;23;20026;-57
2022/05/10 11:16:44;;;;;;;16.48;7.18;;;;;;;;;;6151023;23;20089;-56
2022/05/10 11:19:26;;;;;;;17.98;7.55;;;;;;;;;;6149884;23;20032;-55
2022/05/10 11:22:11;;;;;;;15.60;8.55;;;;;;;;;;6151213;23;20455;-54
2022/05/10 11:24:59;;;;;;;16.42;8.15;;;;;;;;;;6150596;23;20021;-66
2022/05/10 11:27:47;;;;;;;13.35;7.53;;;;;;;;;;6150966;23;20029;-67
2022/05/10 11:30:20;;;;;;;20.45;9.15;;;;;;;;;;6151169;23;20025;-65
2022/05/10 11:32:55;;;;;;;18.75;8.48;;;;;;;;;;6150755;23;20340;-64
2022/05/10 11:35:41;;;;;;;23.95;9.68;;;;;;;;;;6151207;23;20022;-64
2022/05/10 11:38:11;;;;;;;21.25;10.27;;;;;;;;;;6150912;23;20029;-63
2022/05/10 11:41:07;;;;;;;23.30;10.73;;;;;;;;;;6150846;23;20087;-63
2022/05/10 11:43:47;;;;;;;23.13;10.93;;;;;;;;;;6151183;23;20051;-59
2022/05/10 11:46:31;;;;;;;23.73;10.65;;;;;;;;;;6150985;23;20088;-58
2022/05/10 11:49:20;;;;;;;22.85;11.15;;;;;;;;;;6149963;23;20022;-57
2022/05/10 11:52:06;;;;;;;24.27;11.07;;;;;;;;;;6150602;23;20048;-58
2022/05/10 11:54:38;;;;;;;20.35;11.07;;;;;;;;;;6151077;23;20026;-58
2022/05/10 11:57:14;;;;;;;22.55;11.13;;;;;;;;;;6149976;23;20076;-59
2022/05/10 11:59:41;;;;;;;21.05;11.02;;;;;;;;;;6149721;23;20025;-55
2022/05/10 12:02:27;;;;;;;24.58;11.13;;;;;;;;;;6151021;23;20056;-55
2022/05/10 12:05:15;;;;;;;25.00;11.38;;;;;;;;;;6148071;23;20052;-52
2022/05/10 12:07:43;;;;;;;20.10;11.57;;;;;;;;;;6150707;23;20475;-54
2022/05/10 12:10:35;;;;;;;24.42;11.60;;;;;;;;;;6150655;23;20352;-55
2022/05/10 12:22:19;;;;;;;21.75;10.75;;;;;;;;;;6149156;23;20025;-59
2022/05/10 12:24:46;;;;;;;20.67;10.88;;;;;;;;;;6149329;23;20025;-59
2022/05/10 12:27:30;;;;;;;31.58;11.43;;;;;;;;;;6150391;23;20053;-59
2022/05/10 12:30:23;;;;;;;19.92;11.20;;;;;;;;;;6149894;23;20475;-59
2022/05/10 12:32:49;;;;;;;15.93;9.75;;;;;;;;;;6150109;23;20028;-59
2022/05/10 12:35:33;;;;;;;23.10;10.65;;;;;;;;;;6150293;23;20530;-59
2022/05/10 12:38:00;;;;;;;20.00;9.48;;;;;;;;;;6149874;23;20073;-55
2022/05/10 12:40:35;;;;;;;21.58;9.20;;;;;;;;;;6149926;23;20032;-59
2022/05/10 12:43:25;;;;;;;18.75;10.50;;;;;;;;;;6150390;23;20060;-59
2022/05/10 12:46:07;;;;;;;18.40;10.60;;;;;;;;;;6151208;23;20026;-59
2022/05/10 12:48:46;;;;;;;16.40;9.70;;;;;;;;;;6150179;23;20244;-59
2022/05/10 12:51:22;;;;;;;20.90;9.18;;;;;;;;;;6150360;23;20022;-59
2022/05/10 12:53:56;;;;;;;14.15;9.02;;;;;;;;;;6149430;23;20029;-59
2022/05/10 12:56:30;;;;;;;14.80;9.13;;;;;;;;;;6150676;23;20022;-56
2022/05/10 12:58:56;;;;;;;;;;;;;;;;;;6151256;23;20025;-63
2022/05/10 13:01:25;;;;;;;12.88;8.40;;;;;;;;;;6150658;23;19920;-57
2022/05/10 13:04:03;;;;;;;18.30;8.68;;;;;;;;;;6150548;23;20057;-58
2022/05/10 13:06:48;;;;;;;16.50;8.18;;;;;;;;;;6149214;23;20423;-58
2022/05/10 13:09:24;;;;;;;15.38;7.68;;;;;;;;;;6149504;23;20029;-58
2022/05/10 13:11:53;;;;;;;12.77;7.43;;;;;;;;;;6150449;23;20044;-58
2022/05/10 13:14:20;;;;;;;13.77;7.32;;;;;;;;;;6150657;23;20029;-57
2022/05/10 13:16:54;;;;;;;15.07;7.93;;;;;;;;;;6151097;23;20089;-54
2022/05/10 13:19:21;;;;;;;;;;;;;;;;;;6150155;23;20486;-53
2022/05/10 13:21:53;;;;;;;12.50;7.57;;;;;;;;;;6149992;23;19922;-55
2022/05/10 13:24:29;;;;;;;10.52;7.57;;;;;;;;;;6150218;23;20080;-57
2022/05/10 13:27:00;;;;;;;15.00;7.22;;;;;;;;;;6152703;23;20021;-56
2022/05/10 13:29:48;;;;;;;13.95;8.35;;;;;;;;;;6151825;23;20021;-52
2022/05/10 13:32:29;;;;;;;10.52;6.95;;;;;;;;;;6152367;23;20132;-54
2022/05/10 13:35:03;;;;;;;;;;;;;;;;;;6152155;23;20479;-55
2022/05/10 13:37:32;;;;;;;13.90;7.47;;;;;;;;;;6151970;23;19920;-54
2022/05/10 13:39:59;;;;;;;14.95;7.22;;;;;;;;;;6151984;23;20026;-55
2022/05/10 13:42:41;;;;;;;10.57;6.47;;;;;;;;;;6151494;23;20079;-54
2022/05/10 13:45:09;;;;;;;12.52;6.95;;;;;;;;;;6152178;23;20040;-54
2022/05/10 13:47:48;;;;;;;11.32;6.78;;;;;;;;;;6152370;23;20024;-52
2022/05/10 13:50:20;;;;;;;10.50;5.85;;;;;;;;;;6151290;23;20392;-54
2022/05/10 13:52:57;;;;;;;8.07;5.88;;;;;;;;;;6152050;23;20100;-58
2022/05/10 13:55:25;;;;;;;14.68;7.38;;;;;;;;;;6152103;23;20446;-58
2022/05/10 13:57:59;;;;;;;10.55;6.32;;;;;;;;;;6152179;23;20021;-64
2022/05/10 14:00:32;;;;;;;10.48;5.45;;;;;;;;;;6151673;23;20052;-64
2022/05/10 14:02:59;;;;;;;8.70;5.60;;;;;;;;;;6151915;23;20017;-64
2022/05/10 14:05:28;;;;;;;8.18;4.53;;;;;;;;;;6150395;23;20037;-65
2022/05/10 14:08:04;;;;;;;9.75;5.30;;;;;;;;;;6151024;23;20025;-63
2022/05/10 14:10:31;;;;;;;9.18;5.47;;;;;;;;;;6150801;23;20493;-64
2022/05/10 14:12:59;;;;;;;;;;;;;;;;;;6152852;23;20021;-58
2022/05/10 14:15:35;;;;;;;9.18;5.60;;;;;;;;;;6151535;23;20243;-55
2022/05/10 14:18:07;;;;;;;6.32;5.00;;;;;;;;;;6151775;23;20025;-54
2022/05/10 14:20:45;;;;;;;9.85;6.47;;;;;;;;;;6151661;23;20506;-56
2022/05/10 14:23:14;;;;;;;8.65;5.60;;;;;;;;;;6151245;23;20033;-55
2022/05/10 14:26:00;;;;;;;12.93;6.50;;;;;;;;;;6151525;23;20561;-55
2022/05/10 14:28:34;;;;;;;9.30;6.53;;;;;;;;;;6151850;23;20028;-57
2022/05/10 14:31:18;;;;;;;10.60;6.20;;;;;;;;;;6149046;23;20029;-55
2022/05/10 14:33:51;;;;;;;10.57;7.13;;;;;;;;;;6151828;23;20273;-58
2022/05/10 14:36:38;;;;;;;11.57;7.03;;;;;;;;;;6151287;23;20033;-62
2022/05/10 14:39:23;;;;;;;15.73;7.32;;;;;;;;;;6151594;23;20087;-62
2022/05/10 14:41:56;;;;;;;12.25;6.70;;;;;;;;;;6148589;23;20057;-62
2022/05/10 14:44:40;;;;;;;10.13;6.43;;;;;;;;;;6150965;23;20068;-62
2022/05/10 14:47:22;;;;;;;9.80;6.93;;;;;;;;;;6150033;23;20029;-62
2022/05/10 14:49:50;;;;;;;8.63;7.00;;;;;;;;;;6150057;23;20029;-62
2022/05/10 14:52:27;;;;;;;9.75;6.63;;;;;;;;;;6150757;23;20025;-57
2022/05/10 14:54:56;;;;;;;12.00;7.45;;;;;;;;;;6150334;23;20025;-58
2022/05/10 14:57:36;;;;;;;11.70;6.57;;;;;;;;;;6151056;23;20378;-61
2022/05/10 15:03:08;;;;;;;10.35;7.10;;;;;;;;;;6150629;23;20083;-58
2022/05/10 15:05:41;;;;;;;10.27;7.32;;;;;;;;;;6148068;23;20025;-57
2022/05/10 15:08:21;;;;;;;11.18;7.03;;;;;;;;;;6150551;23;20025;-58
2022/05/10 15:10:49;;;;;;;11.05;6.53;;;;;;;;;;6150080;23;20029;-51
2022/05/10 15:13:23;;;;;;;11.55;7.57;;;;;;;;;;6149399;23;20407;-62
2022/05/10 15:15:51;;;;;;;13.40;7.57;;;;;;;;;;6151381;23;20364;-63
2022/05/10 15:21:21;;;;;;;17.23;8.50;;;;;;;;;;6151056;23;20072;-62
2022/05/10 15:23:48;;;;;;;13.40;8.07;;;;;;;;;;6150431;23;20022;-64
2022/05/10 15:26:16;;;;;;;14.15;8.93;;;;;;;;;;6150810;23;20034;-63
2022/05/10 15:28:51;;;;;;;12.00;8.23;;;;;;;;;;6149942;23;20176;-63
2022/05/10 15:31:19;;;;;;;12.80;7.88;;;;;;;;;;6150899;23;20471;-58
2022/05/10 15:33:45;;;;;;;11.90;8.25;;;;;;;;;;6150545;23;20050;-57
2022/05/10 15:36:19;;;;;;;12.93;8.13;;;;;;;;;;6150818;23;20044;-57
2022/05/10 15:38:46;;;;;;;17.20;8.93;;;;;;;;;;6150095;23;20041;-57
2022/05/10 15:41:13;;;;;;;12.52;8.23;;;;;;;;;;6150988;23;20157;-58
2022/05/10 15:43:46;;;;;;;14.63;9.27;;;;;;;;;;6150575;23;20075;-57